Time,TemperatureF,DewpointF,PressureIn,WindDirection,WindDirectionDegrees,WindSpeedMPH,WindSpeedGustMPH,Humidity,HourlyPrecipIn,Conditions,Clouds,dailyrainin,SoftwareType,DateUTC
2013-04-11 00:02:00,31.0,30.0,-100.00,ESE,110,0.0,0.0,99,0.00,,,0.00,,2013-04-11 00:02:00,
2013-04-11 00:12:00,31.0,30.0,-100.00,ESE,105,0.0,0.0,99,0.00,,,0.00,,2013-04-11 00:12:00,
2013-04-11 00:22:00,31.0,30.0,-100.00,ENE,60,0.0,0.0,99,0.00,,,0.00,,2013-04-11 00:22:00,
2013-04-11 00:32:00,31.0,30.0,-100.00,ESE,120,0.0,0.0,99,0.00,,,0.00,,2013-04-11 00:32:00,
2013-04-11 00:42:00,31.0,30.0,-100.00,East,90,0.0,0.0,99,0.00,,,0.00,,2013-04-11 00:42:00,
2013-04-11 00:52:00,31.0,30.0,-100.00,ENE,65,0.0,0.0,99,0.00,,,0.00,,2013-04-11 00:52:00,
2013-04-11 01:02:00,31.0,30.0,-100.00,NE,50,0.0,0.0,99,0.00,,,0.00,,2013-04-11 01:02:00,
2013-04-11 01:12:00,31.0,30.0,-100.00,NE,50,0.0,0.0,99,0.00,,,0.00,,2013-04-11 01:12:00,
2013-04-11 01:22:00,31.0,30.0,-100.00,East,80,0.0,0.0,99,0.00,,,0.00,,2013-04-11 01:22:00,
2013-04-11 01:32:00,31.0,30.0,-100.00,ENE,75,0.0,0.0,99,0.00,,,0.00,,2013-04-11 01:32:00,
2013-04-11 01:42:00,31.0,30.0,-100.00,East,90,0.0,0.0,99,0.00,,,0.00,,2013-04-11 01:42:00,
2013-04-11 01:52:00,31.0,30.0,-100.00,East,100,0.0,0.0,99,0.00,,,0.00,,2013-04-11 01:52:00,
2013-04-11 02:03:00,31.0,30.0,-100.00,East,90,0.0,0.0,99,0.00,,,0.00,,2013-04-11 02:03:00,
2013-04-11 02:12:00,31.0,30.0,-100.00,East,95,0.0,0.0,99,0.00,,,0.00,,2013-04-11 02:12:00,
2013-04-11 02:22:00,31.0,30.0,-100.00,East,100,0.0,0.0,99,0.00,,,0.00,,2013-04-11 02:22:00,
2013-04-11 02:32:00,31.0,30.0,-100.00,East,80,0.0,0.0,99,0.00,,,0.00,,2013-04-11 02:32:00,
2013-04-11 02:42:00,31.0,30.0,-100.00,East,80,0.0,0.0,99,0.00,,,0.00,,2013-04-11 02:42:00,
2013-04-11 02:52:00,31.0,30.0,-100.00,East,90,0.0,0.0,99,0.00,,,0.00,,2013-04-11 02:52:00,
2013-04-11 03:02:00,31.0,30.0,-100.00,East,95,0.0,0.0,99,0.00,,,0.00,,2013-04-11 03:02:00,
2013-04-11 03:12:00,31.0,30.0,-100.00,ESE,115,0.0,0.0,99,0.00,,,0.00,,2013-04-11 03:12:00,
2013-04-11 03:22:00,31.0,30.0,-100.00,ENE,60,0.0,0.0,99,0.00,,,0.00,,2013-04-11 03:22:00,
2013-04-11 03:33:00,31.0,30.0,-100.00,ESE,105,0.0,0.0,99,0.00,,,0.00,,2013-04-11 03:33:00,
2013-04-11 03:43:00,31.0,30.0,-100.00,ESE,105,0.0,0.0,99,0.00,,,0.00,,2013-04-11 03:43:00,
2013-04-11 08:22:00,31.0,30.0,-100.00,NE,45,0.0,0.0,99,0.00,,,0.00,,2013-04-11 08:22:00,
2013-04-11 08:32:00,31.0,30.0,-100.00,NNE,25,0.0,0.0,99,0.00,,,0.00,,2013-04-11 08:32:00,
2013-04-11 08:42:00,31.0,30.0,-100.00,ENE,75,0.0,0.0,99,0.00,,,0.00,,2013-04-11 08:42:00,
2013-04-11 08:52:00,31.0,30.0,-100.00,NE,40,0.0,0.0,99,0.00,,,0.00,,2013-04-11 08:52:00,
2013-04-11 09:02:00,31.0,30.0,-100.00,East,80,0.0,0.0,99,0.00,,,0.00,,2013-04-11 09:02:00,
2013-04-11 09:12:00,31.0,30.0,-100.00,NNE,30,0.0,0.0,99,0.00,,,0.00,,2013-04-11 09:12:00,
2013-04-11 09:22:00,31.0,30.0,-100.00,NE,40,0.0,0.0,99,0.00,,,0.00,,2013-04-11 09:22:00,
2013-04-11 09:33:00,31.0,30.0,-100.00,NNE,15,0.0,0.0,99,0.00,,,0.00,,2013-04-11 09:33:00,
2013-04-11 09:42:00,31.0,30.0,-100.00,NNE,15,0.0,0.0,99,0.00,,,0.00,,2013-04-11 09:42:00,
2013-04-11 10:12:00,29.0,28.0,-100.00,East,90,0.0,0.0,99,0.00,,,0.00,,2013-04-11 10:12:00,
2013-04-11 10:23:00,29.0,28.0,-100.00,NE,40,0.0,0.0,99,0.00,,,0.00,,2013-04-11 10:23:00,
2013-04-11 10:32:00,29.0,28.0,-100.00,NNE,20,0.0,0.0,99,0.00,,,0.00,,2013-04-11 10:32:00,
2013-04-11 10:42:00,29.0,28.0,-100.00,NNE,20,0.0,0.0,99,0.00,,,0.00,,2013-04-11 10:42:00,
2013-04-11 10:52:00,29.0,28.0,-100.00,North,10,0.0,0.0,99,0.00,,,0.00,,2013-04-11 10:52:00,
2013-04-11 11:02:00,29.0,28.0,-100.00,North,10,0.0,0.0,99,0.00,,,0.00,,2013-04-11 11:02:00,
2013-04-11 11:12:00,29.0,28.0,-100.00,ENE,75,0.0,0.0,99,0.00,,,0.00,,2013-04-11 11:12:00,
2013-04-11 11:22:00,29.0,28.0,-100.00,ENE,60,0.0,0.0,99,0.00,,,0.00,,2013-04-11 11:22:00,
2013-04-11 11:32:00,29.0,28.0,-100.00,NNE,30,0.0,0.0,99,0.00,,,0.00,,2013-04-11 11:32:00,
2013-04-11 11:42:00,29.0,28.0,-100.00,NNE,30,0.0,0.0,99,0.00,,,0.00,,2013-04-11 11:42:00,
2013-04-11 11:52:00,29.0,28.0,-100.00,NNE,25,0.0,0.0,99,0.00,,,0.00,,2013-04-11 11:52:00,
2013-04-11 12:02:00,29.0,28.0,-100.00,NNE,15,0.0,0.0,99,0.00,,,0.00,,2013-04-11 12:02:00,
2013-04-11 12:12:00,29.0,28.0,-100.00,East,95,0.0,0.0,99,0.00,,,0.00,,2013-04-11 12:12:00,
2013-04-11 12:22:00,29.0,28.0,-100.00,East,90,0.0,0.0,99,0.00,,,0.00,,2013-04-11 12:22:00,
2013-04-11 12:32:00,29.0,28.0,-100.00,NE,45,0.0,0.0,99,0.00,,,0.00,,2013-04-11 12:32:00,
2013-04-11 12:42:00,29.0,28.0,-100.00,NE,50,0.0,0.0,99,0.00,,,0.00,,2013-04-11 12:42:00,
2013-04-11 13:22:00,30.0,30.0,-100.00,East,85,0.0,0.0,99,0.00,,,0.00,,2013-04-11 13:22:00,
2013-04-11 13:32:00,30.0,30.0,-100.00,East,90,0.0,0.0,99,0.00,,,0.00,,2013-04-11 13:32:00,
2013-04-11 13:43:00,30.0,30.0,-100.00,ESE,120,0.0,0.0,99,0.00,,,0.00,,2013-04-11 13:43:00,
2013-04-11 13:52:00,31.0,30.0,-100.00,NE,55,0.0,0.0,99,0.00,,,0.00,,2013-04-11 13:52:00,
2013-04-11 14:02:00,31.0,30.0,-100.00,ENE,75,0.0,0.0,99,0.00,,,0.00,,2013-04-11 14:02:00,
2013-04-11 14:12:00,31.0,30.0,-100.00,NE,45,0.0,0.0,99,0.00,,,0.00,,2013-04-11 14:12:00,
2013-04-11 15:02:00,32.0,32.0,-100.00,NE,50,11.0,14.0,99,0.00,,,0.00,,2013-04-11 15:02:00,
2013-04-11 15:12:00,32.0,32.0,-100.00,NE,45,11.0,16.0,99,0.00,,,0.00,,2013-04-11 15:12:00,
2013-04-11 15:22:00,32.0,32.0,-100.00,NE,55,15.0,17.0,99,0.00,,,0.00,,2013-04-11 15:22:00,
2013-04-11 15:32:00,33.0,32.0,-100.00,ENE,60,14.0,17.0,99,0.00,,,0.00,,2013-04-11 15:32:00,
2013-04-11 16:12:00,34.0,34.0,-100.00,ENE,60,12.0,17.0,99,0.00,,,0.00,,2013-04-11 16:12:00,
2013-04-11 16:22:00,34.0,34.0,-100.00,NE,55,14.0,18.0,99,0.00,,,0.00,,2013-04-11 16:22:00,
2013-04-11 16:41:00,35.0,34.0,-100.00,ENE,60,14.0,17.0,99,0.00,,,0.00,,2013-04-11 16:41:00,
2013-04-11 16:52:00,35.0,34.0,-100.00,NE,55,14.0,17.0,99,0.00,,,0.00,,2013-04-11 16:52:00,
2013-04-11 17:02:00,34.0,34.0,-100.00,ENE,60,14.0,17.0,99,0.00,,,0.00,,2013-04-11 17:02:00,
2013-04-11 17:12:00,33.0,32.0,-100.00,NE,55,13.0,17.0,99,0.00,,,0.00,,2013-04-11 17:12:00,
2013-04-11 17:23:00,33.0,32.0,-100.00,NE,45,12.0,17.0,99,0.00,,,0.00,,2013-04-11 17:23:00,
2013-04-11 17:32:00,33.0,32.0,-100.00,ENE,60,14.0,19.0,99,0.00,,,0.00,,2013-04-11 17:32:00,
2013-04-11 18:22:00,34.0,34.0,-100.00,NE,50,11.0,16.0,99,0.00,,,0.00,,2013-04-11 18:22:00,
2013-04-11 18:32:00,34.0,34.0,-100.00,NE,40,11.0,14.0,99,0.00,,,0.00,,2013-04-11 18:32:00,
2013-04-11 18:42:00,34.0,34.0,-100.00,NE,45,11.0,15.0,98,0.00,,,0.00,,2013-04-11 18:42:00,
2013-04-11 18:52:00,34.0,34.0,-100.00,NE,45,12.0,16.0,98,0.00,,,0.00,,2013-04-11 18:52:00,
2013-04-11 19:03:00,34.0,34.0,-100.00,NE,55,12.0,17.0,97,0.00,,,0.00,,2013-04-11 19:03:00,
2013-04-11 19:13:00,34.0,34.0,-100.00,NE,45,10.0,15.0,97,0.00,,,0.00,,2013-04-11 19:13:00,
2013-04-11 19:22:00,34.0,34.0,-100.00,NE,50,12.0,16.0,96,0.00,,,0.00,,2013-04-11 19:22:00,
2013-04-11 19:32:00,35.0,34.0,-100.00,NE,45,12.0,14.0,96,0.00,,,0.00,,2013-04-11 19:32:00,
2013-04-11 19:42:00,35.0,34.0,-100.00,NE,35,11.0,14.0,96,0.00,,,0.00,,2013-04-11 19:42:00,
2013-04-11 19:52:00,34.0,34.0,-100.00,NE,40,11.0,16.0,96,0.00,,,0.00,,2013-04-11 19:52:00,
2013-04-11 20:02:00,34.0,34.0,-100.00,NE,35,12.0,14.0,96,0.00,,,0.00,,2013-04-11 20:02:00,
2013-04-11 20:13:00,34.0,34.0,-100.00,NE,40,12.0,14.0,96,0.00,,,0.00,,2013-04-11 20:13:00,
2013-04-11 20:22:00,34.0,34.0,-100.00,NE,40,12.0,15.0,96,0.00,,,0.00,,2013-04-11 20:22:00,
2013-04-11 20:33:00,35.0,34.0,-100.00,NE,40,12.0,14.0,96,0.00,,,0.00,,2013-04-11 20:33:00,
2013-04-11 20:42:00,34.0,34.0,-100.00,NE,40,12.0,16.0,97,0.00,,,0.00,,2013-04-11 20:42:00,
2013-04-11 20:52:00,34.0,34.0,-100.00,NE,40,11.0,14.0,97,0.00,,,0.00,,2013-04-11 20:52:00,
2013-04-11 21:02:00,35.0,34.0,-100.00,NNE,30,11.0,14.0,97,0.00,,,0.00,,2013-04-11 21:02:00,
2013-04-11 21:12:00,34.0,34.0,-100.00,NE,35,11.0,15.0,98,0.00,,,0.00,,2013-04-11 21:12:00,
2013-04-11 21:22:00,34.0,34.0,-100.00,NE,40,13.0,16.0,98,0.00,,,0.00,,2013-04-11 21:22:00,
2013-04-11 21:33:00,34.0,34.0,-100.00,NE,35,14.0,17.0,98,0.00,,,0.00,,2013-04-11 21:33:00,
2013-04-11 21:42:00,34.0,34.0,-100.00,NE,35,10.0,16.0,98,0.00,,,0.00,,2013-04-11 21:42:00,
2013-04-11 22:03:00,34.0,34.0,-100.00,NE,40,12.0,18.0,98,0.00,,,0.00,,2013-04-11 22:03:00,
2013-04-11 22:13:00,34.0,34.0,-100.00,NE,40,16.0,18.0,99,0.00,,,0.00,,2013-04-11 22:13:00,
2013-04-11 22:23:00,34.0,34.0,-100.00,NE,35,12.0,17.0,99,0.00,,,0.00,,2013-04-11 22:23:00,
2013-04-11 22:32:00,34.0,34.0,-100.00,NE,40,13.0,17.0,99,0.00,,,0.00,,2013-04-11 22:32:00,